createdAt,value
2022-08-26T00:02:22.584Z,71.34
2022-08-26T00:07:24.765Z,71.85
2022-08-26T00:12:31.544Z,71.93
2022-08-26T00:17:40.193Z,72.13
2022-08-26T00:22:43.576Z,70.69
2022-08-26T00:27:47.982Z,71.02
2022-08-26T00:32:50.918Z,71.83
2022-08-26T00:37:55.954Z,71.27
2022-08-26T00:42:58.711Z,70.98
2022-08-26T00:48:03.798Z,70.15
2022-08-26T00:53:24.008Z,70.04
2022-08-26T00:58:29.716Z,70.08
2022-08-26T01:03:34.361Z,70.54
2022-08-26T01:08:36.516Z,71.11
2022-08-26T01:13:39.447Z,71.44
2022-08-26T01:18:43.230Z,71.22
2022-08-26T01:23:49.583Z,71.38
2022-08-26T01:28:55.595Z,71.07
2022-08-26T01:34:09.125Z,71.10
2022-08-26T01:39:11.704Z,71.35
2022-08-26T01:44:22.523Z,71.90
2022-08-26T01:49:26.906Z,72.87
2022-08-26T01:54:29.070Z,72.87
2022-08-26T01:59:31.409Z,73.65
2022-08-26T02:04:40.565Z,73.19
2022-08-26T02:09:44.552Z,73.39
2022-08-26T02:14:52.072Z,73.59
2022-08-26T02:19:54.347Z,74.15
2022-08-26T02:25:00.500Z,74.32
2022-08-26T02:30:13.322Z,74.64
2022-08-26T02:35:18.314Z,74.26
2022-08-26T02:40:26.691Z,74.51
2022-08-26T02:45:29.160Z,74.69
2022-08-26T02:50:31.320Z,74.67
2022-08-26T02:55:33.536Z,74.70
2022-08-26T03:00:39.417Z,74.57
2022-08-26T03:05:55.205Z,74.95
2022-08-26T03:10:57.244Z,74.42
2022-08-26T03:16:02.147Z,74.62
2022-08-26T03:21:09.128Z,74.21
2022-08-26T03:26:13.765Z,74.41
2022-08-26T03:31:16.458Z,74.13
2022-08-26T03:36:18.589Z,74.35
2022-08-26T03:41:21.447Z,74.32
2022-08-26T03:46:23.596Z,75.03
2022-08-26T03:51:29.998Z,75.22
2022-08-26T03:56:33.688Z,75.60
2022-08-26T04:01:36.502Z,75.72
2022-08-26T04:06:44.683Z,75.66
2022-08-26T04:11:50.664Z,75.63
2022-08-26T04:16:55.377Z,76.10
2022-08-26T04:21:57.794Z,76.08
2022-08-26T04:26:59.786Z,76.31
2022-08-26T04:32:03.327Z,76.07
2022-08-26T04:37:06.621Z,76.26
2022-08-26T04:42:09.196Z,76.38
2022-08-26T04:47:11.267Z,76.70
2022-08-26T04:52:13.350Z,76.75
2022-08-26T04:57:15.762Z,76.83
2022-08-26T05:02:18.207Z,76.86
2022-08-26T05:07:20.957Z,76.96
2022-08-26T05:12:23.498Z,77.06
2022-08-26T05:17:27.366Z,77.34
2022-08-26T05:22:29.356Z,77.57
2022-08-26T05:27:31.303Z,77.55
2022-08-26T05:32:34.847Z,77.47
2022-08-26T05:37:38.748Z,75.83
2022-08-26T05:42:41.112Z,76.53
2022-08-26T05:47:43.148Z,75.55
2022-08-26T05:52:45.419Z,75.68
2022-08-26T05:57:47.674Z,75.39
2022-08-26T06:02:50.281Z,76.53
2022-08-26T06:08:10.960Z,74.60
2022-08-26T06:13:13.480Z,73.16
2022-08-26T06:18:19.334Z,70.73
2022-08-26T06:23:40.522Z,69.86
2022-08-26T06:28:45.497Z,72.32
2022-08-26T06:33:47.893Z,71.08
2022-08-26T06:38:51.868Z,71.05
2022-08-26T06:43:54.724Z,71.67
2022-08-26T06:49:00.619Z,72.79
2022-08-26T06:54:04.111Z,73.77
2022-08-26T06:59:07.802Z,72.97
2022-08-26T07:04:10.718Z,73.49
2022-08-26T07:09:12.859Z,74.53
2022-08-26T07:14:16.869Z,72.82
2022-08-26T07:19:29.981Z,74.15
2022-08-26T07:24:37.262Z,73.62
2022-08-26T07:29:40.567Z,74.35
2022-08-26T07:34:43.212Z,73.13
2022-08-26T07:39:45.846Z,72.29
2022-08-26T07:44:48.812Z,72.09
2022-08-26T07:49:52.670Z,73.01
2022-08-26T07:54:59.638Z,72.46
2022-08-26T08:00:02.441Z,72.46
2022-08-26T08:05:18.068Z,73.38
2022-08-26T08:10:23.074Z,74.31
2022-08-26T08:15:29.961Z,73.30
2022-08-26T08:20:32.347Z,73.30
2022-08-26T08:25:35.771Z,72.18
2022-08-26T08:30:39.879Z,73.31
2022-08-26T08:35:42.853Z,71.86
2022-08-26T08:40:46.342Z,72.88
2022-08-26T08:45:54.402Z,72.63
2022-08-26T08:51:04.712Z,72.68
2022-08-26T08:56:29.367Z,71.73
2022-08-26T09:01:56.625Z,71.31
2022-08-26T09:07:01.641Z,70.66
2022-08-26T09:12:08.786Z,71.40
2022-08-26T09:17:39.834Z,70.70
2022-08-26T09:22:44.261Z,71.05
2022-08-26T09:27:50.533Z,71.03
2022-08-26T09:33:10.848Z,71.15
2022-08-26T09:38:26.794Z,70.54
2022-08-26T09:43:30.260Z,70.39
2022-08-26T09:48:38.036Z,71.21
2022-08-26T09:54:05.613Z,70.92
2022-08-26T09:59:11.238Z,70.82
2022-08-26T10:04:26.735Z,70.22
2022-08-26T10:09:34.257Z,71.46
2022-08-26T10:14:49.945Z,70.81
2022-08-26T10:19:59.976Z,70.79
2022-08-26T10:25:06.963Z,70.44
2022-08-26T10:30:22.868Z,70.93
2022-08-26T10:35:27.099Z,70.52
2022-08-26T10:40:45.698Z,70.12
2022-08-26T10:45:57.320Z,70.70
2022-08-26T10:51:03.287Z,70.67
2022-08-26T10:56:18.702Z,69.25
2022-08-26T11:01:43.661Z,68.50
2022-08-26T11:06:46.301Z,69.96
2022-08-26T11:11:50.200Z,69.40
2022-08-26T11:16:57.092Z,67.93
2022-08-26T11:22:27.252Z,69.09
2022-08-26T11:27:38.480Z,67.38
2022-08-26T11:32:40.495Z,67.63
2022-08-26T11:37:49.117Z,68.04
2022-08-26T11:43:18.925Z,69.11
2022-08-26T11:48:29.106Z,69.33
2022-08-26T11:53:33.834Z,68.83
2022-08-26T11:58:41.093Z,68.83
2022-08-26T12:03:51.423Z,67.82
2022-08-26T12:08:59.322Z,68.42
2022-08-26T12:14:05.251Z,67.00
2022-08-26T12:19:42.330Z,68.32
2022-08-26T12:24:56.850Z,67.26
2022-08-26T12:30:06.781Z,67.50
2022-08-26T12:35:14.490Z,68.80
2022-08-26T12:40:43.447Z,68.29
2022-08-26T12:46:02.260Z,69.28
2022-08-26T12:51:09.052Z,69.56
2022-08-26T12:56:39.711Z,69.30
2022-08-26T13:01:44.759Z,68.93
2022-08-26T13:06:46.892Z,69.20
2022-08-26T13:11:48.795Z,68.94
2022-08-26T13:16:50.901Z,70.26
2022-08-26T13:21:55.752Z,68.83
2022-08-26T13:26:58.138Z,69.56
2022-08-26T13:32:00.763Z,69.13
2022-08-26T13:37:02.934Z,68.37
2022-08-26T13:42:05.048Z,68.46
2022-08-26T13:47:07.207Z,67.53
2022-08-26T13:52:09.254Z,67.93
2022-08-26T13:57:11.205Z,67.94
2022-08-26T14:02:14.631Z,68.32
2022-08-26T14:07:16.735Z,67.92
2022-08-26T14:12:18.789Z,67.35
2022-08-26T14:17:22.999Z,68.06
2022-08-26T14:22:25.040Z,67.84
2022-08-26T14:27:27.409Z,67.66
2022-08-26T14:32:29.998Z,67.62
2022-08-26T14:37:32.071Z,67.88
2022-08-26T14:42:34.289Z,67.96
2022-08-26T14:47:36.328Z,67.28
2022-08-26T14:52:57.060Z,67.38
2022-08-26T14:57:59.154Z,66.78
2022-08-26T15:03:01.317Z,65.91
2022-08-26T15:08:10.452Z,66.17
2022-08-26T15:13:12.700Z,66.16
2022-08-26T15:18:14.676Z,64.91
2022-08-26T15:23:16.839Z,65.30
2022-08-26T15:28:19.522Z,65.75
2022-08-26T15:33:24.309Z,65.20
2022-08-26T15:38:29.446Z,65.39
2022-08-26T15:43:31.968Z,64.46
2022-08-26T15:48:33.982Z,65.17
2022-08-26T15:53:36.045Z,65.26
2022-08-26T15:58:38.058Z,65.37
2022-08-26T16:03:40.103Z,65.27
2022-08-26T16:08:42.682Z,65.26
2022-08-26T16:13:46.038Z,64.49
2022-08-26T16:18:48.556Z,65.12
2022-08-26T16:23:51.329Z,65.52
2022-08-26T16:28:53.832Z,65.21
2022-08-26T16:33:55.786Z,64.48
2022-08-26T16:38:57.920Z,63.67
2022-08-26T16:44:00.207Z,63.34
2022-08-26T16:49:04.668Z,63.76
2022-08-26T16:54:08.103Z,62.29
2022-08-26T16:59:11.832Z,62.71
2022-08-26T17:04:13.880Z,63.82
2022-08-26T17:09:16.119Z,63.25
2022-08-26T17:14:18.489Z,64.09
2022-08-26T17:19:21.526Z,63.72
2022-08-26T17:24:23.456Z,63.53
2022-08-26T17:29:25.681Z,62.70
2022-08-26T17:34:29.006Z,62.70
2022-08-26T17:39:30.980Z,63.05
2022-08-26T17:44:33.121Z,62.34
2022-08-26T17:49:35.611Z,62.86
2022-08-26T17:54:37.614Z,62.44
2022-08-26T17:59:40.977Z,62.31
2022-08-26T18:04:43.160Z,64.37
2022-08-26T18:09:45.549Z,64.60
2022-08-26T18:14:47.468Z,63.95
2022-08-26T18:19:49.453Z,63.96
2022-08-26T18:24:58.895Z,63.84
2022-08-26T18:30:01.639Z,63.62
2022-08-26T18:35:04.052Z,63.04
2022-08-26T18:40:09.325Z,63.01
2022-08-26T18:45:16.087Z,63.28
2022-08-26T18:50:18.788Z,62.82
2022-08-26T18:55:21.071Z,63.31
2022-08-26T19:00:23.598Z,63.51
2022-08-26T19:05:25.646Z,64.37
2022-08-26T19:10:27.720Z,64.67
2022-08-26T19:15:29.788Z,64.84
2022-08-26T19:20:31.736Z,65.85
2022-08-26T19:25:33.790Z,65.66
2022-08-26T19:30:39.960Z,66.13
2022-08-26T19:35:43.401Z,65.58
2022-08-26T19:40:45.438Z,65.51
2022-08-26T19:45:47.721Z,66.22
2022-08-26T19:50:49.798Z,65.79
2022-08-26T19:55:51.717Z,65.30
2022-08-26T20:00:53.791Z,66.14
2022-08-26T20:05:56.373Z,66.40
2022-08-26T20:11:03.000Z,66.40
2022-08-26T20:16:05.418Z,65.97
2022-08-26T20:21:26.175Z,67.35
2022-08-26T20:26:29.744Z,66.43
2022-08-26T20:31:31.812Z,66.34
2022-08-26T20:36:34.056Z,67.39
2022-08-26T20:41:36.209Z,66.46
2022-08-26T20:46:38.945Z,67.99
2022-08-26T20:51:43.764Z,67.59
2022-08-26T20:56:46.108Z,65.85
2022-08-26T21:01:48.835Z,68.00
2022-08-26T21:06:52.348Z,67.46
2022-08-26T21:11:55.533Z,66.75
2022-08-26T21:16:57.756Z,66.58
2022-08-26T21:21:59.879Z,66.80
2022-08-26T21:27:01.971Z,66.41
2022-08-26T21:32:05.205Z,66.41
2022-08-26T21:37:13.322Z,66.16
2022-08-26T21:42:18.522Z,67.67
2022-08-26T21:47:22.129Z,66.92
2022-08-26T21:52:24.201Z,67.25
2022-08-26T21:57:27.538Z,67.63
2022-08-26T22:02:29.679Z,67.86
2022-08-26T22:07:31.785Z,68.58
2022-08-26T22:12:33.947Z,68.43
2022-08-26T22:17:36.140Z,70.11
2022-08-26T22:22:38.111Z,70.43
2022-08-26T22:27:42.744Z,71.22
2022-08-26T22:32:46.196Z,72.01
2022-08-26T22:37:48.145Z,72.97
2022-08-26T22:42:58.098Z,72.96
2022-08-26T22:48:04.760Z,73.48
2022-08-26T22:53:06.700Z,73.65
2022-08-26T22:58:09.150Z,73.58
2022-08-26T23:03:11.838Z,73.39
2022-08-26T23:08:15.257Z,73.82
2022-08-26T23:13:17.735Z,73.92
2022-08-26T23:18:19.852Z,73.97
2022-08-26T23:23:22.401Z,74.63
2022-08-26T23:28:24.644Z,74.50
2022-08-26T23:33:46.765Z,74.14
2022-08-26T23:38:52.801Z,74.06
2022-08-26T23:43:55.316Z,74.28
2022-08-26T23:48:57.301Z,74.52
2022-08-26T23:53:59.314Z,74.63
2022-08-26T23:59:01.412Z,74.82
